Wednesday, November 22, 2017, 11:41 AM EST
Back to Local

KVSF, Hartness State Airport

Location: Perkinsville, VT, United States Lat: 43.35
Local Time: 11:41 AM EST (16:41 GMT) Lon: -72.517
Time Zone: US/Eastern Elev: 577 ft

Show me the last for .
Show Coded

Time T Td Feel RH Dir Speed Gust Alt SLP Vis Weather Sky Remarks
2017-11-22 10:54 33 31 29 91 50° 5 - 29.90 29.92 8 -RA BKN048 BKN060 OVC070 1-hr Precip Total: Trace
2017-11-22 09:54 32 30 - 92 - Calm - 29.91 29.93 9 OVC070 None
2017-11-22 08:54 30 28 - 92 - Calm - 29.93 29.95 10 BKN065 OVC100 None
2017-11-22 07:54 27 26 - 96 - Calm - 29.94 29.96 10 CLR None
2017-11-22 06:54 25 25 - 100 - Calm - 29.94 29.96 10 SCT095 6-hr Min Temp (7am): 25.0°F
6-hr Max Temp (7am): 28.0°F
2017-11-22 05:54 25 24 - 96 - Calm - 29.93 29.95 10 CLR None
2017-11-22 04:54 25 24 - 96 - Calm - 29.96 29.98 10 FEW090 None
2017-11-22 03:54 26 25 - 95 - Calm - 29.96 29.98 10 CLR None
2017-11-22 02:54 26 24 22 92 310° 3 - 29.96 29.98 10 CLR None
2017-11-22 01:54 27 25 - 92 - Calm - 29.96 29.97 10 CLR None
2017-11-22 00:54 27 26 - 96 - Calm - 29.96 29.97 7 CLR 6-hr Min Temp (1am): 27.0°F
6-hr Max Temp (1am): 37.9°F
2017-11-21 23:54 28 26 - 92 - Calm - 29.97 29.99 10 CLR 24-hr Min Temp (12am): 24.1°F
24-hr Max Temp (12am): 53.1°F
2017-11-21 22:54 29 26 - 88 - Calm - 29.97 29.99 10 CLR None
2017-11-21 21:54 30 27 26 88 270° 3 - 29.96 29.98 10 CLR None
2017-11-21 20:54 31 28 27 88 270° 3 - 29.95 29.98 10 CLR None
2017-11-21 19:54 33 28 28 81 260° 6 - 29.94 29.96 10 CLR None
2017-11-21 18:54 37 29 32 72 340° 6 - 29.93 29.95 10 CLR 6-hr Min Temp (7pm): 36.0°F
6-hr Max Temp (7pm): 53.1°F
2017-11-21 17:54 36 30 33 78 320° 3 - 29.92 29.94 10 CLR None
2017-11-21 16:54 46 28 - 49 - Calm - 29.91 29.93 10 CLR None
2017-11-21 15:54 51 27 - 38 160° 10 - 29.88 29.90 10 CLR None
2017-11-21 14:54 53 27 - 36 180° 10 16 29.88 29.90 10 CLR None
2017-11-21 13:54 53 26 - 34 170° 16 24 29.89 29.90 10 CLR None
2017-11-21 12:54 51 26 - 37 160° 8 - 29.90 29.92 10 CLR 6-hr Min Temp (1pm): 24.1°F
6-hr Max Temp (1pm): 51.1°F
2017-11-21 11:54 46 27 42 47 170° 8 - 29.94 29.95 10 CLR None

Support USWX by starting your Amazon purchase here.